createdAt,value
2023-02-13T00:01:26.340Z,34.15
2023-02-13T00:03:54.805Z,32.60
2023-02-13T00:06:23.753Z,33.13
2023-02-13T00:08:52.687Z,27.13
2023-02-13T00:11:21.141Z,36.60
2023-02-13T00:13:49.591Z,40.55
2023-02-13T00:16:18.016Z,31.30
2023-02-13T00:18:46.445Z,30.05
2023-02-13T00:21:14.941Z,29.38
2023-02-13T00:23:43.453Z,33.47
2023-02-13T00:26:14.512Z,31.40
2023-02-13T00:28:43.960Z,32.05
2023-02-13T00:31:15.237Z,32.58
2023-02-13T00:33:44.064Z,30.27
2023-02-13T00:36:21.988Z,28.05
2023-02-13T00:38:50.450Z,33.60
2023-02-13T00:41:18.904Z,36.05
2023-02-13T00:43:47.833Z,31.63
2023-02-13T00:46:17.462Z,27.15
2023-02-13T00:48:46.558Z,30.38
2023-02-13T00:51:15.365Z,33.20
2023-02-13T00:53:43.759Z,32.28
2023-02-13T00:56:12.368Z,33.70
2023-02-13T00:58:40.891Z,36.85
2023-02-13T01:01:09.446Z,34.28
2023-02-13T01:03:37.945Z,30.67
2023-02-13T01:06:07.070Z,33.58
2023-02-13T01:08:39.212Z,33.78
2023-02-13T01:13:36.326Z,31.30
2023-02-13T01:16:05.075Z,33.42
2023-02-13T01:18:33.652Z,32.25
2023-02-13T01:21:07.646Z,32.72
2023-02-13T01:23:38.335Z,33.38
2023-02-13T01:26:13.696Z,33.10
2023-02-13T01:28:42.232Z,33.50
2023-02-13T01:31:10.846Z,34.00
2023-02-13T01:33:39.364Z,34.95
2023-02-13T01:36:14.144Z,35.90
2023-02-13T01:38:43.173Z,30.40
2023-02-13T01:41:11.600Z,37.35
2023-02-13T01:43:45.552Z,34.80
2023-02-13T01:46:19.178Z,34.25
2023-02-13T01:48:49.569Z,37.30
2023-02-13T01:51:27.078Z,34.15
2023-02-13T01:54:09.225Z,32.22
2023-02-13T01:56:43.253Z,33.03
2023-02-13T01:59:16.964Z,34.10
2023-02-13T02:01:45.819Z,34.88
2023-02-13T02:04:22.720Z,37.08
2023-02-13T02:07:02.026Z,31.77
2023-02-13T02:09:34.398Z,32.75
2023-02-13T02:12:08.840Z,35.22
2023-02-13T02:14:39.429Z,41.35
2023-02-13T02:17:08.401Z,39.35
2023-02-13T02:19:55.784Z,36.30
2023-02-13T02:23:03.336Z,32.17
2023-02-13T02:26:09.416Z,34.50
2023-02-13T02:28:37.783Z,34.70
2023-02-13T02:31:39.879Z,35.72
2023-02-13T02:34:31.779Z,32.17
2023-02-13T02:37:32.061Z,32.85
2023-02-13T02:40:32.826Z,33.05
2023-02-13T02:43:21.560Z,34.42
2023-02-13T02:45:52.917Z,32.85
2023-02-13T02:49:14.257Z,35.50
2023-02-13T02:52:03.751Z,30.35
2023-02-13T02:55:00.090Z,32.63
2023-02-13T02:57:51.325Z,34.45
2023-02-13T03:00:41.951Z,31.08
2023-02-13T03:03:48.977Z,34.95
2023-02-13T03:06:26.262Z,33.00
2023-02-13T03:09:18.591Z,28.63
2023-02-13T03:12:09.375Z,31.48
2023-02-13T03:14:37.932Z,32.63
2023-02-13T03:17:31.082Z,31.85
2023-02-13T03:20:27.138Z,30.83
2023-02-13T03:23:14.108Z,33.60
2023-02-13T03:26:15.743Z,30.00
2023-02-13T03:29:20.260Z,30.77
2023-02-13T03:32:01.488Z,34.00
2023-02-13T03:34:56.715Z,30.60
2023-02-13T03:37:49.174Z,30.95
2023-02-13T03:41:15.044Z,33.13
2023-02-13T03:43:52.688Z,29.83
2023-02-13T03:46:22.442Z,29.60
2023-02-13T03:49:10.078Z,31.42
2023-02-13T03:51:43.583Z,29.63
2023-02-13T03:54:20.054Z,28.52
2023-02-13T03:57:09.723Z,26.45
2023-02-13T03:59:38.413Z,32.17
2023-02-13T04:02:17.185Z,28.27
2023-02-13T04:05:21.351Z,27.67
2023-02-13T04:07:49.924Z,30.55
2023-02-13T04:10:19.805Z,33.10
2023-02-13T04:12:54.463Z,31.83
2023-02-13T04:15:22.951Z,32.15
2023-02-13T04:17:58.935Z,31.23
2023-02-13T04:20:28.541Z,32.80
2023-02-13T04:22:56.919Z,30.90
2023-02-13T04:25:25.293Z,30.67
2023-02-13T04:27:53.760Z,29.50
2023-02-13T04:30:22.157Z,33.55
2023-02-13T04:32:51.816Z,32.58
2023-02-13T04:35:20.558Z,29.30
2023-02-13T04:37:49.026Z,31.17
2023-02-13T04:40:17.682Z,34.60
2023-02-13T04:42:48.982Z,32.50
2023-02-13T04:45:17.557Z,32.17
2023-02-13T04:47:55.051Z,30.15
2023-02-13T04:50:24.731Z,32.38
2023-02-13T04:52:55.556Z,34.30
2023-02-13T04:55:25.773Z,32.45
2023-02-13T04:57:55.425Z,33.05
2023-02-13T05:00:26.167Z,31.27
2023-02-13T05:02:59.963Z,33.95
2023-02-13T05:05:28.384Z,31.98
2023-02-13T05:07:56.802Z,31.52
2023-02-13T05:10:25.346Z,36.03
2023-02-13T05:12:54.001Z,35.63
2023-02-13T05:15:23.552Z,37.40
2023-02-13T05:17:52.259Z,35.03
2023-02-13T05:20:20.907Z,34.22
2023-02-13T05:23:10.522Z,32.60
2023-02-13T05:25:41.191Z,32.60
2023-02-13T05:28:29.606Z,32.67
2023-02-13T05:30:58.540Z,36.28
2023-02-13T05:33:27.581Z,32.83
2023-02-13T05:35:56.064Z,31.15
2023-02-13T05:38:24.542Z,29.73
2023-02-13T05:40:52.943Z,32.00
2023-02-13T05:43:21.529Z,31.63
2023-02-13T05:45:52.145Z,31.95
2023-02-13T05:48:20.550Z,29.60
2023-02-13T05:50:49.028Z,31.20
2023-02-13T05:53:17.449Z,30.75
2023-02-13T05:55:46.664Z,31.63
2023-02-13T05:58:15.122Z,34.72
2023-02-13T06:00:43.455Z,32.72
2023-02-13T06:03:12.090Z,32.58
2023-02-13T06:05:40.758Z,33.85
2023-02-13T06:08:09.594Z,30.33
2023-02-13T06:10:38.196Z,32.20
2023-02-13T06:13:06.688Z,34.30
2023-02-13T06:15:35.140Z,27.88
2023-02-13T06:18:03.612Z,30.60
2023-02-13T06:20:32.304Z,32.10
2023-02-13T06:23:00.769Z,27.02
2023-02-13T06:25:29.494Z,30.08
2023-02-13T06:27:58.163Z,31.92
2023-02-13T06:30:26.735Z,32.58
2023-02-13T06:32:55.202Z,30.40
2023-02-13T06:35:24.001Z,31.40
2023-02-13T06:37:52.753Z,30.20
2023-02-13T06:40:21.289Z,32.08
2023-02-13T06:42:49.713Z,31.95
2023-02-13T06:45:18.277Z,29.33
2023-02-13T06:47:48.530Z,30.15
2023-02-13T06:50:17.899Z,28.75
2023-02-13T06:52:51.356Z,32.85
2023-02-13T06:55:20.951Z,29.05
2023-02-13T06:57:49.557Z,30.92
2023-02-13T07:00:19.448Z,28.30
2023-02-13T07:02:48.045Z,30.75
2023-02-13T07:05:16.560Z,28.55
2023-02-13T07:07:44.984Z,27.73
2023-02-13T07:10:14.085Z,32.40
2023-02-13T07:12:43.078Z,31.60
2023-02-13T07:15:12.324Z,30.88
2023-02-13T07:17:40.738Z,32.40
2023-02-13T07:20:09.791Z,26.45
2023-02-13T07:22:38.310Z,38.67
2023-02-13T07:25:08.037Z,33.28
2023-02-13T07:27:36.507Z,36.38
2023-02-13T07:30:05.810Z,29.23
2023-02-13T07:32:34.301Z,25.83
2023-02-13T07:35:03.001Z,21.15
2023-02-13T07:37:31.719Z,23.77
2023-02-13T07:40:00.330Z,24.30
2023-02-13T07:42:28.831Z,21.63
2023-02-13T07:44:57.273Z,22.20
2023-02-13T07:47:25.729Z,20.13
2023-02-13T07:49:54.803Z,21.60
2023-02-13T07:52:23.296Z,24.35
2023-02-13T07:54:51.680Z,20.83
2023-02-13T07:57:20.108Z,18.45
2023-02-13T07:59:48.567Z,22.35
2023-02-13T08:02:17.063Z,20.73
2023-02-13T08:04:46.387Z,21.67
2023-02-13T08:07:16.900Z,20.02
2023-02-13T08:10:04.459Z,22.23
2023-02-13T08:12:35.763Z,22.50
2023-02-13T08:15:05.791Z,20.50
2023-02-13T08:17:34.244Z,21.50
2023-02-13T08:20:03.385Z,19.95
2023-02-13T08:22:31.742Z,18.40
2023-02-13T08:25:00.283Z,19.83
2023-02-13T08:27:30.176Z,22.80
2023-02-13T08:29:59.328Z,22.17
2023-02-13T08:32:27.773Z,19.98
2023-02-13T08:34:56.325Z,20.35
2023-02-13T08:37:25.057Z,20.88
2023-02-13T08:39:53.484Z,21.08
2023-02-13T08:42:21.939Z,21.20
2023-02-13T08:44:50.559Z,23.30
2023-02-13T08:47:18.927Z,19.10
2023-02-13T08:49:47.329Z,18.98
2023-02-13T08:52:15.765Z,22.15
2023-02-13T08:54:44.179Z,24.90
2023-02-13T08:57:12.713Z,19.83
2023-02-13T08:59:41.168Z,23.23
2023-02-13T09:02:12.227Z,22.58
2023-02-13T09:04:40.870Z,23.70
2023-02-13T09:07:09.278Z,25.15
2023-02-13T09:09:37.706Z,24.27
2023-02-13T09:12:06.120Z,23.27
2023-02-13T09:14:34.680Z,21.73
2023-02-13T09:17:03.387Z,21.05
2023-02-13T09:19:32.076Z,21.30
2023-02-13T09:22:00.607Z,22.75
2023-02-13T09:24:29.114Z,21.85
2023-02-13T09:26:57.570Z,22.85
2023-02-13T09:29:30.233Z,21.55
2023-02-13T09:31:58.955Z,19.17
2023-02-13T09:34:27.587Z,21.95
2023-02-13T09:36:56.011Z,25.35
2023-02-13T09:39:24.465Z,20.20
2023-02-13T09:41:53.988Z,20.52
2023-02-13T09:44:54.106Z,18.92
2023-02-13T09:47:37.053Z,17.65
2023-02-13T09:50:25.421Z,19.75
2023-02-13T09:52:58.614Z,19.70
2023-02-13T09:55:41.990Z,17.23
2023-02-13T09:58:34.755Z,17.38
2023-02-13T10:01:06.133Z,18.15
2023-02-13T10:03:47.624Z,15.98
2023-02-13T10:06:31.450Z,17.40
2023-02-13T10:09:22.564Z,20.33
2023-02-13T10:12:02.142Z,19.58
2023-02-13T10:14:41.625Z,16.52
2023-02-13T10:17:20.186Z,14.27
2023-02-13T10:20:03.344Z,19.77
2023-02-13T10:22:52.056Z,18.02
2023-02-13T10:25:31.002Z,17.23
2023-02-13T10:28:06.702Z,16.23
2023-02-13T10:30:56.389Z,14.35
2023-02-13T10:33:30.470Z,29.52
2023-02-13T10:36:05.334Z,17.42
2023-02-13T10:38:35.643Z,14.63
2023-02-13T10:41:26.384Z,16.02
2023-02-13T10:44:19.574Z,16.45
2023-02-13T10:47:15.497Z,14.90
2023-02-13T10:50:07.994Z,14.23
2023-02-13T10:55:22.090Z,16.00
2023-02-13T10:58:18.366Z,12.60
2023-02-13T11:01:02.075Z,16.20
2023-02-13T11:03:30.902Z,16.17
2023-02-13T11:06:05.679Z,17.83
2023-02-13T11:08:38.986Z,16.10
2023-02-13T11:11:33.942Z,13.30
2023-02-13T11:14:18.003Z,16.90
2023-02-13T11:17:07.149Z,17.27
2023-02-13T11:19:52.755Z,18.15
2023-02-13T11:22:39.257Z,21.00
2023-02-13T11:25:31.201Z,13.63
2023-02-13T11:28:16.446Z,15.90
2023-02-13T11:30:44.995Z,15.75
2023-02-13T11:33:26.833Z,13.80
2023-02-13T11:36:13.398Z,13.68
2023-02-13T11:38:42.105Z,13.27
2023-02-13T11:41:13.672Z,13.98
2023-02-13T11:43:50.899Z,12.27
2023-02-13T11:46:23.736Z,13.02
2023-02-13T11:49:05.567Z,13.60
2023-02-13T11:51:54.939Z,17.05
2023-02-13T11:54:25.775Z,14.20
2023-02-13T11:57:05.947Z,14.13
2023-02-13T11:59:42.936Z,15.98
2023-02-13T12:02:20.464Z,14.52
2023-02-13T12:04:51.832Z,17.80
2023-02-13T12:07:24.925Z,16.00
2023-02-13T12:10:02.607Z,17.25
2023-02-13T12:12:40.623Z,14.70
2023-02-13T12:15:19.030Z,15.70
2023-02-13T12:17:54.978Z,9.57
2023-02-13T12:20:25.646Z,13.13
2023-02-13T12:23:17.192Z,16.42
2023-02-13T12:25:59.150Z,16.23
2023-02-13T12:28:46.487Z,14.27
2023-02-13T12:31:24.169Z,14.18
2023-02-13T12:34:15.540Z,15.55
2023-02-13T12:37:19.559Z,14.25
2023-02-13T12:40:23.953Z,11.93
2023-02-13T12:43:13.764Z,14.77
2023-02-13T12:46:07.025Z,15.10
2023-02-13T12:48:50.588Z,16.55
2023-02-13T12:51:45.665Z,14.93
2023-02-13T12:54:20.431Z,16.60
2023-02-13T12:57:01.066Z,14.32
2023-02-13T13:00:13.622Z,11.18
2023-02-13T13:03:15.263Z,12.15
2023-02-13T13:06:12.211Z,23.83
2023-02-13T13:09:01.946Z,13.05
2023-02-13T13:11:45.526Z,13.30
2023-02-13T13:14:23.837Z,16.92
2023-02-13T13:17:21.712Z,13.55
2023-02-13T13:20:23.176Z,15.48
2023-02-13T13:23:17.349Z,14.60
2023-02-13T13:25:57.707Z,12.07
2023-02-13T13:28:33.168Z,14.23
2023-02-13T13:31:03.402Z,13.05
2023-02-13T13:33:33.670Z,11.40
2023-02-13T13:36:34.092Z,14.25
2023-02-13T13:39:41.056Z,12.43
2023-02-13T13:42:09.836Z,11.55
2023-02-13T13:44:57.182Z,11.93
2023-02-13T13:47:40.758Z,11.90
2023-02-13T13:50:27.398Z,9.93
2023-02-13T13:53:23.388Z,10.93
2023-02-13T13:56:05.730Z,11.25
2023-02-13T14:01:23.478Z,8.93
2023-02-13T14:03:57.594Z,9.57
2023-02-13T14:06:48.579Z,10.93
2023-02-13T14:09:39.513Z,13.20
2023-02-13T14:12:28.975Z,19.85
2023-02-13T14:14:58.920Z,9.48
2023-02-13T14:17:45.630Z,11.32
2023-02-13T14:20:25.997Z,11.73
2023-02-13T14:22:55.035Z,13.25
2023-02-13T14:25:28.116Z,11.15
2023-02-13T14:28:05.980Z,13.63
2023-02-13T14:30:36.987Z,14.20
2023-02-13T14:33:23.513Z,10.48
2023-02-13T14:36:34.511Z,12.73
2023-02-13T14:39:08.086Z,13.00
2023-02-13T14:41:57.661Z,9.98
2023-02-13T14:44:32.379Z,11.52
2023-02-13T14:47:05.035Z,13.38
2023-02-13T14:49:37.590Z,11.00
2023-02-13T14:52:13.591Z,11.25
2023-02-13T14:54:55.490Z,9.38
2023-02-13T14:57:31.701Z,12.85
2023-02-13T15:00:25.490Z,10.10
2023-02-13T15:03:08.030Z,10.93
2023-02-13T15:05:36.904Z,9.85
2023-02-13T15:08:13.597Z,11.40
2023-02-13T15:10:46.971Z,13.38
2023-02-13T15:13:31.774Z,11.95
2023-02-13T15:16:08.573Z,11.05
2023-02-13T15:18:52.320Z,9.38
2023-02-13T15:21:24.443Z,11.05
2023-02-13T15:26:28.758Z,10.52
2023-02-13T15:29:25.881Z,11.18
2023-02-13T15:31:56.994Z,10.45
2023-02-13T15:34:34.324Z,10.00
2023-02-13T15:37:03.077Z,12.95
2023-02-13T15:39:32.129Z,11.10
2023-02-13T15:42:02.785Z,11.07
2023-02-13T15:44:34.028Z,11.15
2023-02-13T15:47:07.527Z,10.20
2023-02-13T15:49:42.836Z,12.43
2023-02-13T15:52:27.866Z,9.48
2023-02-13T15:54:57.081Z,10.80
2023-02-13T15:57:27.202Z,9.45
2023-02-13T15:59:59.386Z,10.50
2023-02-13T16:05:14.069Z,10.30
2023-02-13T16:10:27.434Z,8.60
2023-02-13T16:12:57.907Z,8.73
2023-02-13T16:15:30.105Z,11.15
2023-02-13T16:17:59.292Z,12.13
2023-02-13T16:20:30.491Z,13.45
2023-02-13T16:23:20.805Z,10.07
2023-02-13T16:25:49.327Z,10.30
2023-02-13T16:28:31.807Z,9.88
2023-02-13T16:31:03.154Z,11.20
2023-02-13T16:33:34.076Z,10.10
2023-02-13T16:36:11.799Z,10.85
2023-02-13T16:38:44.774Z,10.98
2023-02-13T16:41:19.512Z,9.65
2023-02-13T16:43:51.753Z,11.77
2023-02-13T16:46:25.069Z,11.18
2023-02-13T16:48:56.509Z,10.13
2023-02-13T16:51:37.618Z,12.88
2023-02-13T16:54:18.004Z,12.38
2023-02-13T16:56:53.839Z,10.82
2023-02-13T16:59:47.298Z,11.55
2023-02-13T17:02:33.422Z,12.77
2023-02-13T17:05:08.158Z,14.25
2023-02-13T17:07:38.959Z,12.10
2023-02-13T17:10:29.033Z,12.05
2023-02-13T17:13:00.260Z,14.68
2023-02-13T17:15:31.148Z,13.33
2023-02-13T17:18:00.011Z,14.77
2023-02-13T17:20:31.296Z,13.70
2023-02-13T17:23:02.021Z,13.37
2023-02-13T17:25:33.805Z,13.43
2023-02-13T17:28:15.031Z,15.02
2023-02-13T17:30:44.379Z,16.10
2023-02-13T17:33:27.608Z,15.25
2023-02-13T17:35:56.535Z,16.20
2023-02-13T17:38:25.005Z,18.20
2023-02-13T17:40:53.494Z,14.43
2023-02-13T17:43:22.015Z,15.65
2023-02-13T17:45:50.595Z,17.02
2023-02-13T17:48:19.277Z,15.13
2023-02-13T17:50:50.402Z,14.00
2023-02-13T17:53:29.736Z,14.10
2023-02-13T17:55:58.755Z,15.18
2023-02-13T17:58:27.254Z,14.93
2023-02-13T18:00:55.728Z,16.02
2023-02-13T18:03:24.389Z,15.90
2023-02-13T18:05:52.839Z,18.90
2023-02-13T18:08:21.338Z,16.98
2023-02-13T18:10:49.756Z,45.63
2023-02-13T18:13:18.188Z,24.77
2023-02-13T18:15:46.714Z,24.08
2023-02-13T18:18:16.290Z,24.40
2023-02-13T18:20:45.081Z,21.00
2023-02-13T18:23:14.120Z,19.30
2023-02-13T18:25:42.542Z,19.10
2023-02-13T18:28:10.973Z,18.98
2023-02-13T18:30:42.480Z,25.20
2023-02-13T18:33:11.344Z,20.60
2023-02-13T18:35:39.774Z,19.10
2023-02-13T18:38:08.332Z,18.38
2023-02-13T18:40:36.775Z,20.98
2023-02-13T18:43:05.361Z,19.70
2023-02-13T18:45:36.104Z,20.20
2023-02-13T18:48:04.487Z,20.58
2023-02-13T18:50:33.729Z,20.52
2023-02-13T18:53:02.131Z,18.30
2023-02-13T18:55:30.535Z,20.25
2023-02-13T18:57:59.756Z,21.48
2023-02-13T19:00:29.178Z,25.83
2023-02-13T19:02:58.592Z,22.65
2023-02-13T19:05:27.193Z,21.15
2023-02-13T19:07:56.711Z,21.98
2023-02-13T19:10:25.281Z,20.63
2023-02-13T19:12:53.676Z,23.80
2023-02-13T19:15:22.115Z,21.88
2023-02-13T19:17:50.773Z,23.92
2023-02-13T19:20:19.713Z,28.50
2023-02-13T19:22:48.193Z,31.77
2023-02-13T19:25:16.617Z,33.45
2023-02-13T19:27:44.989Z,42.33
2023-02-13T19:30:14.022Z,27.27
2023-02-13T19:32:42.504Z,22.67
2023-02-13T19:35:10.952Z,25.23
2023-02-13T19:37:44.294Z,23.67
2023-02-13T19:40:13.746Z,22.65
2023-02-13T19:42:42.238Z,21.75
2023-02-13T19:45:11.365Z,23.67
2023-02-13T19:47:39.928Z,22.75
2023-02-13T19:50:09.576Z,21.13
2023-02-13T19:52:38.170Z,24.30
2023-02-13T19:55:06.859Z,21.30
2023-02-13T19:57:36.106Z,22.73
2023-02-13T20:00:07.702Z,23.80
2023-02-13T20:02:37.950Z,25.73
2023-02-13T20:05:08.530Z,25.30
2023-02-13T20:07:36.929Z,23.23
2023-02-13T20:10:06.841Z,21.42
2023-02-13T20:12:36.167Z,23.08
2023-02-13T20:15:05.603Z,23.30
2023-02-13T20:17:37.108Z,22.83
2023-02-13T20:20:06.224Z,19.77
2023-02-13T20:22:34.606Z,26.35
2023-02-13T20:25:03.693Z,22.50
2023-02-13T20:27:32.355Z,22.63
2023-02-13T20:30:06.950Z,20.70
2023-02-13T20:32:36.152Z,23.02
2023-02-13T20:35:06.014Z,22.65
2023-02-13T20:37:34.909Z,23.73
2023-02-13T20:40:03.554Z,20.23
2023-02-13T20:42:33.734Z,22.73
2023-02-13T20:45:02.219Z,25.92
2023-02-13T20:47:30.954Z,23.50
2023-02-13T20:49:59.342Z,30.75
2023-02-13T20:52:27.849Z,30.77
2023-02-13T20:54:58.431Z,25.73
2023-02-13T20:57:27.832Z,27.13
2023-02-13T20:59:56.247Z,25.98
2023-02-13T21:02:24.978Z,28.98
2023-02-13T21:04:53.410Z,27.67
2023-02-13T21:07:21.899Z,27.05
2023-02-13T21:09:50.319Z,22.95
2023-02-13T21:12:18.848Z,22.20
2023-02-13T21:14:47.352Z,24.85
2023-02-13T21:17:15.808Z,28.77
2023-02-13T21:19:44.282Z,38.30
2023-02-13T21:22:12.821Z,24.08
2023-02-13T21:24:42.765Z,26.50
2023-02-13T21:27:11.432Z,29.95
2023-02-13T21:29:39.862Z,23.58
2023-02-13T21:32:08.539Z,24.17
2023-02-13T21:34:37.044Z,24.73
2023-02-13T21:37:05.510Z,22.38
2023-02-13T21:39:34.502Z,27.90
2023-02-13T21:42:04.463Z,26.25
2023-02-13T21:44:33.473Z,25.42
2023-02-13T21:47:01.975Z,24.55
2023-02-13T21:49:30.496Z,22.88
2023-02-13T21:51:59.070Z,23.40
2023-02-13T21:54:27.577Z,21.15
2023-02-13T21:56:55.976Z,21.42
2023-02-13T21:59:24.385Z,22.95
2023-02-13T22:01:54.408Z,26.10
2023-02-13T22:04:23.163Z,22.13
2023-02-13T22:06:52.838Z,22.17
2023-02-13T22:09:22.073Z,24.25
2023-02-13T22:11:53.509Z,23.33
2023-02-13T22:14:22.326Z,20.70
2023-02-13T22:16:52.246Z,22.13
2023-02-13T22:19:21.056Z,22.30
2023-02-13T22:21:49.533Z,22.88
2023-02-13T22:24:17.904Z,23.92
2023-02-13T22:26:46.514Z,21.20
2023-02-13T22:29:17.671Z,24.92
2023-02-13T22:31:46.623Z,20.10
2023-02-13T22:34:15.583Z,19.17
2023-02-13T22:36:44.066Z,19.25
2023-02-13T22:39:12.680Z,20.45
2023-02-13T22:41:42.437Z,20.15
2023-02-13T22:44:10.970Z,21.60
2023-02-13T22:46:39.677Z,24.05
2023-02-13T22:49:08.209Z,21.00
2023-02-13T22:51:37.046Z,22.52
2023-02-13T22:54:05.949Z,25.20
2023-02-13T22:56:34.692Z,25.08
2023-02-13T22:59:03.460Z,23.88
2023-02-13T23:01:32.029Z,21.63
2023-02-13T23:04:00.664Z,22.00
2023-02-13T23:06:29.392Z,20.65
2023-02-13T23:08:57.965Z,24.75
2023-02-13T23:11:46.739Z,22.33
2023-02-13T23:14:15.401Z,22.88
2023-02-13T23:17:03.184Z,22.58
2023-02-13T23:19:31.725Z,23.15
2023-02-13T23:22:00.620Z,23.30
2023-02-13T23:24:29.952Z,22.77
2023-02-13T23:26:59.881Z,23.20
2023-02-13T23:29:28.362Z,24.10
2023-02-13T23:31:57.001Z,22.20
2023-02-13T23:34:25.539Z,21.75
2023-02-13T23:36:53.987Z,26.85
2023-02-13T23:39:24.176Z,22.55
2023-02-13T23:41:52.695Z,23.15
2023-02-13T23:44:21.120Z,27.30
2023-02-13T23:46:49.692Z,24.50
2023-02-13T23:49:18.237Z,27.67
2023-02-13T23:51:47.176Z,26.52
2023-02-13T23:54:21.925Z,24.15
2023-02-13T23:56:52.449Z,24.15
2023-02-13T23:59:22.673Z,27.08
